Recreio, Brazil
Current Conditions -  °F | °C
As of 8:00 PM on Monday 26 Jan 2015 (Local Time) from SBJF Reporting Station
Light Rain Light Rain  
Wind Chill: 68°   Ceiling: 7000
Heat Index: 68°   Visibility: 3mi
Dew Point: 66°   Wind: 9mph
Humidity: 94%   Direction: 300°WNW
Pressure: NA   Gusts: NA
Location:  21.52°S, 42.47°W
Report Text: SBJF 262200Z 30008KT 5000 -RA FEW010 FEW015TCU BKN070 20/19 Q1018
Loading
Personal Weather Stations






























Interactive Weather Map New forecast layout! Learn more

10-Day Weather Forecast

Advertisements
Track Severe Weather on mobile